Time;durP1;ratioP1;P1;durP2;ratioP2;P2;SDS_P1;SDS_P2;PMS_P1;PMS_P2;Temp;Humidity;BMP_temperature;BMP_pressure;BME280_temperature;BME280_humidity;BME280_pressure;Samples;Min_cycle;Max_cycle;Signal;HPM_P1;HPM_P2
2022/08/09 00:00:29;;;;;;;9.65;3.45;;;15.90;83.60;;;;;;5129891;27;20196;-84
2022/08/09 00:02:56;;;;;;;4.57;3.47;;;15.80;83.40;;;;;;5132109;27;20230;-84
2022/08/09 00:05:25;;;;;;;4.22;3.75;;;15.80;83.70;;;;;;5135175;27;20226;-84
2022/08/09 00:07:52;;;;;;;4.38;3.97;;;15.70;84.10;;;;;;5125211;27;20208;-84
2022/08/09 00:10:19;;;;;;;3.80;3.47;;;15.70;84.80;;;;;;5131499;27;20529;-84
2022/08/09 00:12:46;;;;;;;4.07;3.67;;;15.70;84.80;;;;;;5117740;27;20642;-84
2022/08/09 00:15:12;;;;;;;4.28;3.67;;;15.60;84.50;;;;;;5127244;27;20544;-84
2022/08/09 00:17:39;;;;;;;5.28;3.58;;;15.70;84.70;;;;;;5120397;27;20188;-84
2022/08/09 00:20:07;;;;;;;5.82;3.70;;;15.70;84.90;;;;;;5126602;27;20191;-84
2022/08/09 00:22:35;;;;;;;3.92;3.63;;;15.60;85.60;;;;;;5120966;27;20246;-84
2022/08/09 00:25:02;;;;;;;4.32;3.42;;;15.60;85.50;;;;;;5120542;27;20199;-84
2022/08/09 00:27:33;;;;;;;4.80;3.92;;;15.50;85.90;;;;;;5126687;27;20199;-84
2022/08/09 00:30:10;;;;;;;4.40;3.50;;;15.50;85.90;;;;;;5126276;27;20188;-84
2022/08/09 00:32:36;;;;;;;4.03;3.72;;;15.50;86.40;;;;;;5130375;28;20199;-84
2022/08/09 00:35:04;;;;;;;4.13;3.67;;;15.40;87.20;;;;;;5121476;27;20192;-84
2022/08/09 00:37:31;;;;;;;5.20;3.58;;;15.40;87.70;;;;;;5120170;27;20203;-84
2022/08/09 00:39:59;;;;;;;6.70;3.83;;;15.50;88.10;;;;;;5129615;27;20191;-84
2022/08/09 00:42:27;;;;;;;4.60;3.90;;;15.40;88.60;;;;;;5121593;27;20195;-84
2022/08/09 00:44:54;;;;;;;4.38;3.60;;;15.40;89.40;;;;;;5134312;27;20227;-84
2022/08/09 00:47:21;;;;;;;4.82;3.75;;;15.40;90.30;;;;;;5133558;27;20511;-84
2022/08/09 00:49:51;;;;;;;4.35;3.60;;;15.40;90.00;;;;;;5131632;27;20211;-84
2022/08/09 00:52:18;;;;;;;4.88;4.05;;;15.40;90.00;;;;;;5134079;27;20263;-84
2022/08/09 00:54:47;;;;;;;5.18;3.78;;;15.40;90.10;;;;;;5130470;27;20198;-84
2022/08/09 00:57:16;;;;;;;3.92;3.53;;;15.40;90.20;;;;;;5131512;27;20196;-85
2022/08/09 00:59:45;;;;;;;4.28;3.55;;;15.40;90.20;;;;;;5126108;27;20674;-84
2022/08/09 01:02:12;;;;;;;4.20;3.90;;;15.50;90.20;;;;;;5133315;27;20199;-84
2022/08/09 01:04:49;;;;;;;5.15;3.90;;;15.50;90.20;;;;;;5129570;27;20211;-84
2022/08/09 01:07:21;;;;;;;4.82;4.13;;;15.40;90.30;;;;;;5132019;27;20203;-84
2022/08/09 01:09:55;;;;;;;5.25;3.72;;;15.30;90.60;;;;;;5125771;27;20192;-84
2022/08/09 01:12:31;;;;;;;4.15;3.75;;;15.20;90.60;;;;;;5123859;27;20260;-84
2022/08/09 01:15:05;;;;;;;4.40;3.92;;;15.20;90.70;;;;;;5132025;27;20225;-84
2022/08/09 01:17:36;;;;;;;4.88;3.75;;;15.20;91.50;;;;;;5135013;27;20214;-84
2022/08/09 01:20:06;;;;;;;4.30;3.90;;;15.10;91.10;;;;;;5131127;27;20566;-84
2022/08/09 01:22:49;;;;;;;4.82;3.80;;;15.10;91.20;;;;;;5128585;27;20210;-84
2022/08/09 01:25:30;;;;;;;4.40;4.00;;;15.10;91.50;;;;;;5127045;27;20199;-84
2022/08/09 01:27:59;;;;;;;5.00;4.20;;;15.00;91.50;;;;;;5144452;27;20200;-84
2022/08/09 01:30:28;;;;;;;4.40;4.00;;;15.00;91.50;;;;;;5130703;27;20646;-84
2022/08/09 01:32:57;;;;;;;6.00;4.20;;;15.00;91.50;;;;;;5139032;27;20202;-84
2022/08/09 01:35:28;;;;;;;4.70;4.30;;;14.90;91.40;;;;;;5123207;27;20211;-84
2022/08/09 01:37:58;;;;;;;4.85;4.38;;;14.90;91.40;;;;;;5128036;27;20195;-84
2022/08/09 01:40:27;;;;;;;5.55;4.00;;;14.80;91.40;;;;;;5130729;27;20546;-84
2022/08/09 01:42:54;;;;;;;4.28;3.88;;;14.80;91.80;;;;;;5130292;27;20689;-84
2022/08/09 01:45:24;;;;;;;5.95;4.05;;;14.90;91.90;;;;;;5122959;27;20214;-84
2022/08/09 01:47:52;;;;;;;4.57;4.18;;;14.90;92.00;;;;;;5127308;27;20207;-84
2022/08/09 01:50:22;;;;;;;4.53;4.13;;;14.90;92.30;;;;;;5129554;27;20210;-84
2022/08/09 01:52:50;;;;;;;4.90;4.45;;;14.90;92.30;;;;;;5141161;27;20208;-84
2022/08/09 01:55:18;;;;;;;4.75;4.20;;;14.80;92.00;;;;;;5135667;27;20214;-84
2022/08/09 01:57:48;;;;;;;5.35;4.57;;;14.90;92.00;;;;;;5134759;27;20204;-84
2022/08/09 02:00:15;;;;;;;5.90;4.15;;;14.90;92.00;;;;;;5139357;27;20203;-84
2022/08/09 02:02:47;;;;;;;5.10;4.18;;;15.00;92.20;;;;;;5135444;27;20203;-84
2022/08/09 02:05:18;;;;;;;6.10;4.60;;;14.90;92.20;;;;;;5134901;27;20203;-84
2022/08/09 02:07:47;;;;;;;4.07;3.75;;;14.90;92.00;;;;;;5124929;27;20210;-84
2022/08/09 02:10:24;;;;;;;4.65;4.18;;;15.00;91.90;;;;;;5137170;27;20207;-84
2022/08/09 02:12:54;;;;;;;5.32;3.80;;;15.00;91.90;;;;;;5136719;27;20196;-84
2022/08/09 02:15:24;;;;;;;5.38;4.75;;;14.90;91.80;;;;;;5132706;27;20213;-84
2022/08/09 02:17:54;;;;;;;6.07;5.47;;;14.90;92.10;;;;;;5127221;27;20205;-84
2022/08/09 02:20:21;;;;;;;5.45;4.63;;;14.80;92.30;;;;;;5128804;27;20202;-84
2022/08/09 02:23:02;;;;;;;4.70;4.20;;;14.70;92.50;;;;;;5131465;27;20201;-84
2022/08/09 02:25:33;;;;;;;5.55;5.05;;;14.70;92.50;;;;;;5119536;27;20203;-84
2022/08/09 02:28:06;;;;;;;5.07;4.10;;;14.80;92.60;;;;;;5134477;27;20261;-84
2022/08/09 02:30:40;;;;;;;6.22;4.35;;;14.80;92.50;;;;;;5138407;27;20210;-84
2022/08/09 02:33:11;;;;;;;5.25;4.20;;;14.80;92.10;;;;;;5131459;27;20203;-85
2022/08/09 02:35:40;;;;;;;5.05;4.55;;;14.90;91.40;;;;;;5135857;27;20214;-84
2022/08/09 02:38:10;;;;;;;4.32;3.92;;;14.90;91.40;;;;;;5135191;27;20195;-84
2022/08/09 02:40:40;;;;;;;4.60;4.10;;;14.80;91.40;;;;;;5120047;27;20200;-84
2022/08/09 02:43:10;;;;;;;4.65;4.15;;;14.70;91.40;;;;;;5117589;27;20199;-84
2022/08/09 02:45:42;;;;;;;4.75;4.07;;;14.80;91.70;;;;;;5124440;27;20290;-84
2022/08/09 02:48:15;;;;;;;4.50;4.10;;;14.80;91.40;;;;;;5126104;27;20196;-84
2022/08/09 02:50:43;;;;;;;4.75;4.30;;;14.90;91.40;;;;;;5124827;27;20192;-84
2022/08/09 02:53:17;;;;;;;4.35;3.95;;;14.90;91.40;;;;;;5126200;27;20195;-84
2022/08/09 02:55:48;;;;;;;5.13;3.60;;;14.90;90.80;;;;;;5123180;27;20195;-84
2022/08/09 02:58:17;;;;;;;4.93;3.60;;;15.00;90.40;;;;;;5122766;27;20203;-84
2022/08/09 03:00:45;;;;;;;3.88;3.47;;;15.00;90.20;;;;;;5127720;27;20191;-84
2022/08/09 03:03:15;;;;;;;5.47;4.03;;;15.00;90.40;;;;;;5129744;27;20206;-84
2022/08/09 03:05:43;;;;;;;5.13;4.10;;;15.00;90.50;;;;;;5135297;27;20209;-84
2022/08/09 03:08:11;;;;;;;6.22;4.25;;;14.90;90.80;;;;;;5129494;27;20201;-84
2022/08/09 03:10:39;;;;;;;6.93;4.00;;;14.90;91.30;;;;;;5131473;27;20195;-84
2022/08/09 03:13:07;;;;;;;4.60;4.20;;;14.80;91.40;;;;;;5124371;27;20196;-84
2022/08/09 03:15:34;;;;;;;4.60;3.83;;;14.90;91.40;;;;;;5135687;27;20205;-84
2022/08/09 03:18:03;;;;;;;5.32;4.57;;;14.90;91.40;;;;;;5135939;27;20199;-84
2022/08/09 03:20:31;;;;;;;5.65;4.55;;;14.80;91.40;;;;;;5137973;27;20236;-84
2022/08/09 03:23:00;;;;;;;5.30;4.28;;;14.80;91.40;;;;;;5136011;27;20649;-84
2022/08/09 03:25:28;;;;;;;4.78;4.38;;;14.80;91.40;;;;;;5132213;27;20215;-84
2022/08/09 03:27:56;;;;;;;6.35;4.20;;;14.80;91.40;;;;;;5123988;27;20204;-84
2022/08/09 03:30:24;;;;;;;4.78;4.32;;;14.90;91.40;;;;;;5122896;27;20245;-84
2022/08/09 03:32:52;;;;;;;6.57;4.50;;;15.00;91.50;;;;;;5122575;27;20202;-84
2022/08/09 03:35:19;;;;;;;4.80;4.32;;;14.90;91.40;;;;;;5128970;27;20202;-84
2022/08/09 03:37:48;;;;;;;5.18;4.07;;;14.90;91.40;;;;;;5128800;27;20201;-84
2022/08/09 03:40:16;;;;;;;5.15;4.75;;;14.80;91.50;;;;;;5125771;27;20199;-84
2022/08/09 03:42:43;;;;;;;5.32;4.60;;;14.80;91.80;;;;;;5118968;27;20210;-84
2022/08/09 03:45:10;;;;;;;4.63;4.30;;;14.70;92.00;;;;;;5128936;27;20222;-84
2022/08/09 03:47:37;;;;;;;5.75;4.50;;;14.70;92.00;;;;;;5128063;27;20196;-84
2022/08/09 03:50:11;;;;;;;4.85;4.30;;;14.70;91.90;;;;;;5126079;27;20316;-84
2022/08/09 03:52:41;;;;;;;5.70;4.90;;;14.70;91.90;;;;;;5121398;27;20192;-84
2022/08/09 03:55:13;;;;;;;6.10;4.60;;;14.60;92.20;;;;;;5131996;27;20561;-84
2022/08/09 03:57:47;;;;;;;5.13;4.65;;;14.50;92.40;;;;;;5128363;27;20655;-84
2022/08/09 04:00:15;;;;;;;5.82;4.57;;;14.30;93.20;;;;;;5121000;27;20219;-84
2022/08/09 04:02:43;;;;;;;5.70;4.80;;;14.20;93.50;;;;;;5119712;27;20598;-84
2022/08/09 04:05:10;;;;;;;6.40;4.82;;;14.10;93.70;;;;;;5134430;27;20218;-84
2022/08/09 04:07:37;;;;;;;6.13;4.70;;;14.10;93.70;;;;;;5131585;27;20248;-84
2022/08/09 04:10:04;;;;;;;8.00;4.93;;;14.10;93.90;;;;;;5131256;27;20574;-84
2022/08/09 04:12:43;;;;;;;5.38;4.88;;;14.10;93.80;;;;;;5126232;27;20598;-84
2022/08/09 04:15:23;;;;;;;4.85;4.35;;;14.10;94.00;;;;;;5122136;27;20222;-84
2022/08/09 04:17:50;;;;;;;5.32;4.82;;;14.10;94.10;;;;;;5125997;27;20202;-84
2022/08/09 04:20:17;;;;;;;7.38;4.90;;;14.10;94.10;;;;;;5128325;27;20728;-84
2022/08/09 04:22:45;;;;;;;7.40;4.90;;;14.10;94.20;;;;;;5125627;27;20650;-84
2022/08/09 04:25:12;;;;;;;5.88;5.28;;;14.10;94.20;;;;;;5125511;27;20219;-84
2022/08/09 04:27:41;;;;;;;5.95;4.80;;;14.10;94.10;;;;;;5123917;27;20206;-84
2022/08/09 04:30:10;;;;;;;6.95;4.55;;;14.00;94.00;;;;;;5122405;27;20207;-84
2022/08/09 04:32:37;;;;;;;6.70;5.00;;;14.00;94.20;;;;;;5123432;28;20199;-84
2022/08/09 04:35:05;;;;;;;6.93;5.07;;;14.10;94.10;;;;;;5131042;27;20555;-84
2022/08/09 04:37:31;;;;;;;5.30;4.80;;;14.10;94.00;;;;;;5128457;27;20213;-84
2022/08/09 04:40:05;;;;;;;5.05;4.55;;;14.20;94.20;;;;;;5126257;27;20286;-84
2022/08/09 04:42:32;;;;;;;5.38;4.88;;;14.20;94.00;;;;;;5124825;27;20214;-84
2022/08/09 04:45:01;;;;;;;5.15;4.70;;;14.30;93.90;;;;;;5126521;27;20233;-84
2022/08/09 04:47:29;;;;;;;4.97;4.10;;;14.30;93.70;;;;;;5130666;27;20672;-84
2022/08/09 04:49:56;;;;;;;5.75;4.47;;;14.40;93.80;;;;;;5125912;27;20209;-84
2022/08/09 04:52:25;;;;;;;5.00;4.45;;;14.50;93.60;;;;;;5126262;27;20198;-84
2022/08/09 04:54:52;;;;;;;6.05;4.50;;;14.60;93.10;;;;;;5130326;27;20195;-84
2022/08/09 04:57:20;;;;;;;5.25;4.47;;;14.60;92.80;;;;;;5130576;27;20604;-84
2022/08/09 04:59:46;;;;;;;5.07;4.57;;;14.60;92.30;;;;;;5128646;27;20199;-84
2022/08/09 05:02:15;;;;;;;6.15;4.80;;;14.70;91.70;;;;;;5121535;27;20195;-84
2022/08/09 05:04:41;;;;;;;5.50;4.05;;;14.80;91.40;;;;;;5131983;27;20219;-84
2022/08/09 05:07:08;;;;;;;4.40;4.00;;;14.90;91.40;;;;;;5128730;27;20229;-84
2022/08/09 05:09:35;;;;;;;4.45;4.07;;;15.00;91.30;;;;;;5131860;27;20724;-84
2022/08/09 05:12:02;;;;;;;4.10;3.70;;;15.00;90.40;;;;;;5126535;27;20195;-84
2022/08/09 05:14:30;;;;;;;5.90;4.65;;;15.10;90.20;;;;;;5132389;27;20557;-84
2022/08/09 05:16:58;;;;;;;4.97;4.20;;;15.20;89.80;;;;;;5133483;27;20674;-85
2022/08/09 05:19:29;;;;;;;7.35;4.50;;;15.30;88.70;;;;;;5121741;27;20223;-84
2022/08/09 05:21:56;;;;;;;4.90;4.50;;;15.40;88.30;;;;;;5125922;27;20188;-84
2022/08/09 05:24:27;;;;;;;4.57;4.18;;;15.40;88.20;;;;;;5128385;27;20231;-85
2022/08/09 05:26:54;;;;;;;4.88;4.43;;;15.50;88.50;;;;;;5134798;27;20495;-84
2022/08/09 05:29:21;;;;;;;4.57;4.20;;;15.50;87.60;;;;;;5124416;27;20565;-86
2022/08/09 05:31:49;;;;;;;6.07;4.15;;;15.60;88.60;;;;;;5137343;27;20206;-85
2022/08/09 05:34:16;;;;;;;4.85;4.00;;;15.60;87.30;;;;;;5138719;27;20210;-85
2022/08/09 05:36:45;;;;;;;4.55;4.00;;;15.80;86.00;;;;;;5140398;27;20657;-85
2022/08/09 05:39:12;;;;;;;4.20;3.78;;;15.90;85.50;;;;;;5138352;27;20200;-85
2022/08/09 05:41:38;;;;;;;4.75;3.90;;;16.00;85.00;;;;;;5147376;27;20266;-85
2022/08/09 05:44:05;;;;;;;4.47;4.07;;;16.10;85.00;;;;;;5140168;27;20643;-85
2022/08/09 05:46:32;;;;;;;6.72;4.40;;;16.20;84.80;;;;;;5140923;27;20203;-85
2022/08/09 05:48:59;;;;;;;4.13;3.72;;;16.20;85.10;;;;;;5143091;27;20202;-85
2022/08/09 05:51:26;;;;;;;5.85;4.00;;;16.20;85.60;;;;;;5133200;27;20227;-86
2022/08/09 05:53:59;;;;;;;4.07;3.63;;;16.40;84.70;;;;;;5142694;27;20282;-88
2022/08/09 05:56:27;;;;;;;5.53;3.72;;;16.50;84.20;;;;;;5137618;27;20206;-85
2022/08/09 05:58:56;;;;;;;3.70;3.40;;;16.60;82.80;;;;;;5132237;27;20286;-85
2022/08/09 06:01:23;;;;;;;4.65;3.80;;;16.60;83.20;;;;;;5123509;27;20625;-85
2022/08/09 06:03:50;;;;;;;4.13;3.70;;;16.80;81.80;;;;;;5137753;27;20552;-85
2022/08/09 06:06:17;;;;;;;3.63;3.33;;;17.00;81.30;;;;;;5130093;27;20856;-85
2022/08/09 06:08:44;;;;;;;5.53;3.40;;;17.10;81.00;;;;;;5130138;27;20213;-85
2022/08/09 06:11:17;;;;;;;4.07;3.75;;;17.10;81.00;;;;;;5127807;27;20587;-87
2022/08/09 06:13:44;;;;;;;4.68;3.40;;;17.20;80.00;;;;;;5128357;27;20196;-87
2022/08/09 06:16:11;;;;;;;3.92;3.53;;;17.30;80.10;;;;;;5130227;27;20285;-87
2022/08/09 06:18:38;;;;;;;5.40;3.88;;;17.30;78.90;;;;;;5128112;27;20214;-87
2022/08/09 06:21:09;;;;;;;5.07;3.33;;;17.40;79.10;;;;;;5123045;27;20204;-87
2022/08/09 06:23:36;;;;;;;3.78;3.38;;;17.50;79.00;;;;;;5125780;27;20199;-87
2022/08/09 06:26:03;;;;;;;4.50;3.20;;;17.60;76.80;;;;;;5125462;27;20622;-88
2022/08/09 06:28:31;;;;;;;3.72;3.40;;;17.70;76.10;;;;;;5122188;27;20208;-87
2022/08/09 06:30:59;;;;;;;5.10;3.60;;;17.80;74.10;;;;;;5128498;27;20204;-87
2022/08/09 06:33:25;;;;;;;3.53;3.22;;;17.90;72.30;;;;;;5132271;27;20216;-84
2022/08/09 06:35:52;;;;;;;3.85;3.20;;;18.00;71.30;;;;;;5125163;27;20205;-85
2022/08/09 06:38:22;;;;;;;5.88;3.55;;;18.00;73.80;;;;;;5123522;27;20204;-88
2022/08/09 06:40:57;;;;;;;3.40;3.10;;;18.00;73.00;;;;;;5120211;27;20688;-87
2022/08/09 06:43:35;;;;;;;3.72;3.20;;;18.10;70.00;;;;;;5122667;27;20191;-89
2022/08/09 06:46:02;;;;;;;3.40;3.17;;;18.20;71.10;;;;;;5123519;27;20256;-89
2022/08/09 06:48:29;;;;;;;3.75;3.28;;;18.40;68.00;;;;;;5123408;27;20230;-88
2022/08/09 06:50:56;;;;;;;5.82;3.63;;;18.40;68.70;;;;;;5123469;27;20192;-87
2022/08/09 06:53:22;;;;;;;5.88;3.22;;;18.50;65.90;;;;;;5127577;27;20195;-89
2022/08/09 06:55:49;;;;;;;3.75;3.28;;;18.60;69.40;;;;;;5128765;27;20627;-90
2022/08/09 06:58:21;;;;;;;5.28;3.00;;;18.70;61.90;;;;;;5122600;27;20683;-84
2022/08/09 07:00:49;;;;;;;4.38;3.40;;;18.80;60.40;;;;;;5121319;27;20199;-85
2022/08/09 07:03:16;;;;;;;4.70;3.30;;;19.00;59.20;;;;;;5123189;27;20237;-91
2022/08/09 07:05:45;;;;;;;4.40;2.90;;;19.00;66.70;;;;;;5124085;27;20216;-90
2022/08/09 07:08:12;;;;;;;8.38;2.88;;;19.00;60.60;;;;;;5126795;27;20198;-87
2022/08/09 07:10:39;;;;;;;4.20;2.60;;;19.10;60.50;;;;;;5128640;27;20195;-87
2022/08/09 07:13:06;;;;;;;4.45;2.38;;;19.20;57.10;;;;;;5124919;27;20203;-88
2022/08/09 07:15:33;;;;;;;3.90;2.42;;;19.30;59.00;;;;;;5132170;27;20196;-88
2022/08/09 07:18:05;;;;;;;4.57;2.80;;;19.40;55.80;;;;;;5129064;27;20676;-86
2022/08/09 07:20:32;;;;;;;5.53;2.60;;;19.60;55.50;;;;;;5125258;27;20210;-87
2022/08/09 07:22:59;;;;;;;3.55;2.45;;;19.60;55.50;;;;;;5128814;27;20680;-89
2022/08/09 07:25:26;;;;;;;3.80;2.90;;;19.80;50.20;;;;;;5132149;27;20227;-89
2022/08/09 07:27:53;;;;;;;3.50;2.65;;;19.90;48.70;;;;;;5136027;27;20199;-89
2022/08/09 07:30:21;;;;;;;3.33;2.70;;;20.00;46.70;;;;;;5128617;27;20263;-90
2022/08/09 07:32:47;;;;;;;2.67;2.30;;;20.00;45.00;;;;;;5119269;27;20701;-91
2022/08/09 07:35:16;;;;;;;2.50;2.30;;;20.10;42.00;;;;;;5135264;27;20196;-90
2022/08/09 07:37:44;;;;;;;3.70;2.65;;;20.20;39.70;;;;;;5134788;27;20571;-88
2022/08/09 07:40:13;;;;;;;2.70;2.42;;;20.40;38.60;;;;;;5133005;27;20200;-89
2022/08/09 07:42:50;;;;;;;3.42;2.72;;;20.40;39.20;;;;;;5126192;27;20282;-86
2022/08/09 07:45:20;;;;;;;8.25;2.92;;;20.40;40.00;;;;;;5117027;27;20317;-85
2022/08/09 07:47:46;;;;;;;3.42;2.15;;;20.50;39.40;;;;;;5126723;27;20206;-90
2022/08/09 07:50:14;;;;;;;3.75;2.45;;;20.50;37.80;;;;;;5120792;27;20217;-90
2022/08/09 07:52:42;;;;;;;3.60;2.10;;;20.70;35.20;;;;;;5120943;27;20726;-91
2022/08/09 07:55:10;;;;;;;2.90;2.15;;;20.80;32.70;;;;;;5136998;27;20584;-87
2022/08/09 07:57:36;;;;;;;4.65;2.45;;;20.90;32.80;;;;;;5140503;27;20662;-86
2022/08/09 08:00:05;;;;;;;3.45;2.30;;;21.00;30.20;;;;;;5125013;27;20199;-87
2022/08/09 08:02:32;;;;;;;3.90;2.25;;;21.10;33.00;;;;;;5122725;27;20199;-87
2022/08/09 08:04:58;;;;;;;3.55;2.50;;;21.20;33.10;;;;;;5126325;27;20233;-87
2022/08/09 08:07:25;;;;;;;2.95;2.20;;;21.20;33.10;;;;;;5125744;27;20196;-87
2022/08/09 08:09:54;;;;;;;3.45;2.30;;;21.30;32.10;;;;;;5120125;27;20205;-87
2022/08/09 08:12:21;;;;;;;6.75;2.40;;;21.40;30.60;;;;;;5119358;27;20211;-84
2022/08/09 08:14:48;;;;;;;4.72;2.03;;;21.40;30.60;;;;;;5126898;27;20234;-84
2022/08/09 08:17:15;;;;;;;4.90;2.13;;;21.50;33.30;;;;;;5123678;27;20211;-86
2022/08/09 08:19:42;;;;;;;3.38;2.30;;;21.50;30.40;;;;;;5125582;27;20227;-85
2022/08/09 08:22:09;;;;;;;8.05;2.50;;;21.60;30.20;;;;;;5136005;27;20207;-85
2022/08/09 08:24:46;;;;;;;4.82;2.50;;;21.60;31.10;;;;;;5124768;27;20712;-85
2022/08/09 08:27:17;;;;;;;5.57;2.72;;;21.70;29.80;;;;;;5144553;27;20724;-85
2022/08/09 08:29:44;;;;;;;7.45;2.70;;;21.70;30.30;;;;;;5151394;27;20198;-85
2022/08/09 08:32:29;;;;;;;5.85;2.67;;;21.70;30.00;;;;;;5143032;27;20294;-85
2022/08/09 08:34:58;;;;;;;3.75;2.13;;;21.90;29.10;;;;;;5136532;27;20198;-84
2022/08/09 08:37:25;;;;;;;6.03;2.58;;;22.00;29.80;;;;;;5126238;27;20553;-84
2022/08/09 08:39:53;;;;;;;4.18;2.40;;;22.20;29.50;;;;;;5125986;27;20206;-84
2022/08/09 08:42:25;;;;;;;2.55;2.20;;;22.30;29.60;;;;;;5137903;27;20295;-85
2022/08/09 08:44:56;;;;;;;3.97;2.10;;;22.40;24.90;;;;;;5138917;27;20217;-84
2022/08/09 08:47:24;;;;;;;3.40;2.08;;;22.50;22.90;;;;;;5135270;27;20266;-85
2022/08/09 08:49:51;;;;;;;2.95;2.33;;;22.70;23.80;;;;;;5122883;27;20200;-84
2022/08/09 08:52:19;;;;;;;2.47;2.28;;;22.70;25.80;;;;;;5121514;27;20200;-85
2022/08/09 08:54:46;;;;;;;6.80;1.90;;;22.70;28.00;;;;;;5120994;28;20192;-85
2022/08/09 08:57:13;;;;;;;3.15;2.30;;;22.90;22.70;;;;;;5132514;27;20202;-85
2022/08/09 08:59:48;;;;;;;8.63;2.67;;;23.10;22.60;;;;;;5126933;27;20649;-84
2022/08/09 09:02:22;;;;;;;4.20;2.00;;;23.60;22.30;;;;;;5138952;27;20194;-82
2022/08/09 09:04:51;;;;;;;2.70;1.85;;;24.20;19.90;;;;;;5130931;27;20191;-82
2022/08/09 09:07:23;;;;;;;2.85;1.88;;;25.20;16.80;;;;;;5121233;27;20204;-85
2022/08/09 09:09:53;;;;;;;5.25;1.95;;;26.30;14.80;;;;;;5137101;27;20213;-85
2022/08/09 09:12:22;;;;;;;7.65;2.47;;;27.10;14.60;;;;;;5123127;27;20231;-85
2022/08/09 09:14:52;;;;;;;2.60;1.73;;;27.80;13.80;;;;;;5129164;27;20383;-85
2022/08/09 09:17:21;;;;;;;3.20;2.20;;;29.40;10.50;;;;;;5121411;27;20203;-85
2022/08/09 09:19:49;;;;;;;2.65;2.00;;;29.80;9.60;;;;;;5137566;27;20206;-85
2022/08/09 09:22:18;;;;;;;2.40;2.08;;;30.80;7.90;;;;;;5135506;27;20203;-85
2022/08/09 09:24:46;;;;;;;3.78;2.60;;;31.20;7.00;;;;;;5144701;27;20254;-85
2022/08/09 09:27:16;;;;;;;3.92;2.20;;;31.20;6.70;;;;;;5138958;27;20225;-85
2022/08/09 09:29:44;;;;;;;2.53;2.33;;;31.90;7.40;;;;;;5138073;27;20195;-85
2022/08/09 09:32:18;;;;;;;4.00;2.53;;;32.50;5.20;;;;;;5125299;27;20210;-86
2022/08/09 09:35:02;;;;;;;3.92;2.58;;;32.60;5.00;;;;;;5137638;27;20195;-86
2022/08/09 09:37:30;;;;;;;2.80;2.60;;;32.40;4.70;;;;;;5130877;27;20213;-86
2022/08/09 09:39:57;;;;;;;3.95;2.50;;;32.80;5.20;;;;;;5161543;27;20696;-86
2022/08/09 09:42:26;;;;;;;2.80;2.60;;;33.70;4.20;;;;;;5150931;27;20216;-86
2022/08/09 09:44:58;;;;;;;4.78;2.80;;;33.90;2.60;;;;;;5154563;27;20231;-85
2022/08/09 09:47:28;;;;;;;4.82;2.80;;;33.50;3.00;;;;;;5145144;27;20634;-86
2022/08/09 09:50:05;;;;;;;4.05;2.80;;;33.20;4.00;;;;;;5136561;27;20195;-86
2022/08/09 09:52:32;;;;;;;3.50;3.00;;;33.10;2.90;;;;;;5127557;27;20191;-86
2022/08/09 09:55:03;;;;;;;6.28;3.20;;;31.90;4.80;;;;;;5143943;27;20209;-86
2022/08/09 09:57:33;;;;;;;3.78;2.90;;;31.90;3.60;;;;;;5143526;27;20310;-86
2022/08/09 10:00:01;;;;;;;3.63;2.65;;;32.50;4.90;;;;;;5145842;27;20575;-86
2022/08/09 10:02:29;;;;;;;4.00;2.80;;;33.20;2.90;;;;;;5142073;27;20207;-86
2022/08/09 10:05:04;;;;;;;4.10;2.80;;;32.70;4.00;;;;;;5128379;27;20199;-86
2022/08/09 10:07:31;;;;;;;2.75;2.55;;;31.90;4.90;;;;;;5142311;27;20271;-86
2022/08/09 10:10:28;;;;;;;3.55;2.70;;;32.10;4.50;;;;;;5145407;27;20293;-86
2022/08/09 10:12:57;;;;;;;4.78;2.90;;;33.10;4.80;;;;;;5143615;27;20198;-86
2022/08/09 10:15:24;;;;;;;6.97;2.80;;;32.40;5.60;;;;;;5144651;27;20194;-86
2022/08/09 10:17:53;;;;;;;3.50;2.70;;;32.20;5.10;;;;;;5143837;27;20205;-86
2022/08/09 10:20:26;;;;;;;2.83;2.63;;;32.70;4.50;;;;;;5142780;27;20207;-85
2022/08/09 10:22:59;;;;;;;3.83;3.00;;;33.40;3.60;;;;;;5149858;27;20198;-86
2022/08/09 10:25:26;;;;;;;3.50;2.90;;;33.80;2.60;;;;;;5155803;27;20198;-86
2022/08/09 10:27:53;;;;;;;4.80;3.00;;;33.80;2.40;;;;;;5156306;27;20194;-86
2022/08/09 10:30:20;;;;;;;3.25;2.95;;;32.60;4.70;;;;;;5158526;27;20593;-86
2022/08/09 10:32:47;;;;;;;2.60;2.42;;;33.00;5.40;;;;;;5154158;27;20220;-86
2022/08/09 10:35:16;;;;;;;3.92;2.63;;;32.80;3.50;;;;;;5156313;27;20201;-86
2022/08/09 10:37:46;;;;;;;3.08;2.72;;;32.40;4.90;;;;;;5143949;27;20198;-86
2022/08/09 10:40:13;;;;;;;3.28;2.45;;;32.30;4.50;;;;;;5147674;27;20198;-86
2022/08/09 10:42:40;;;;;;;2.80;2.60;;;32.60;5.10;;;;;;5134744;27;20203;-86
2022/08/09 10:45:11;;;;;;;3.40;2.78;;;32.40;5.10;;;;;;5140473;27;20595;-86
2022/08/09 10:47:46;;;;;;;2.97;2.67;;;32.00;6.20;;;;;;5138846;27;20230;-86
2022/08/09 10:50:22;;;;;;;3.83;2.72;;;31.40;7.70;;;;;;5130473;27;20195;-86
2022/08/09 10:53:07;;;;;;;6.32;2.70;;;31.70;7.80;;;;;;5143405;27;20201;-85
2022/08/09 10:55:35;;;;;;;7.63;2.75;;;31.20;7.60;;;;;;5144111;27;20194;-85
2022/08/09 10:58:03;;;;;;;3.47;2.42;;;31.80;5.40;;;;;;5134650;27;20225;-85
2022/08/09 11:00:35;;;;;;;3.10;2.70;;;31.10;6.40;;;;;;5144954;27;20206;-85
2022/08/09 11:03:03;;;;;;;5.68;2.50;;;30.90;9.40;;;;;;5137368;27;20232;-85
2022/08/09 11:05:31;;;;;;;5.15;2.40;;;30.40;7.20;;;;;;5140104;27;20203;-86
2022/08/09 11:08:42;;;;;;;3.13;2.58;;;30.60;7.40;;;;;;5142451;27;20199;-86
2022/08/09 11:11:08;;;;;;;3.00;2.40;;;30.70;6.40;;;;;;5125590;27;20201;-86
2022/08/09 11:13:39;;;;;;;4.25;2.20;;;30.40;10.50;;;;;;5138452;27;20194;-85
2022/08/09 11:16:36;;;;;;;3.65;2.20;;;29.90;7.00;;;;;;5144393;27;20569;-85
2022/08/09 11:19:04;;;;;;;4.70;2.00;;;29.10;8.70;;;;;;5128234;27;20657;-85
2022/08/09 11:21:56;;;;;;;5.25;2.13;;;28.90;8.20;;;;;;5126567;27;20206;-85
2022/08/09 11:24:23;;;;;;;4.32;1.98;;;28.50;9.20;;;;;;5150793;27;20205;-84
2022/08/09 11:26:50;;;;;;;2.20;1.98;;;28.30;9.20;;;;;;5150654;27;20222;-84
2022/08/09 11:29:51;;;;;;;3.05;1.98;;;28.00;12.00;;;;;;5142310;27;20241;-84
2022/08/09 11:32:41;;;;;;;3.35;2.33;;;27.80;11.30;;;;;;5132798;27;20282;-84
2022/08/09 11:35:18;;;;;;;3.58;1.98;;;27.60;10.90;;;;;;5140293;27;20258;-81
2022/08/09 11:37:47;;;;;;;5.90;2.10;;;27.50;11.60;;;;;;5135573;27;20685;-82
2022/08/09 11:40:16;;;;;;;2.88;2.10;;;27.30;11.50;;;;;;5133538;27;20654;-82
2022/08/09 11:42:55;;;;;;;2.58;1.95;;;27.30;11.10;;;;;;5134163;27;20212;-82
2022/08/09 11:45:24;;;;;;;4.80;2.00;;;27.30;10.40;;;;;;5134644;27;20224;-82
2022/08/09 11:47:53;;;;;;;2.63;2.20;;;27.20;11.80;;;;;;5150977;27;20211;-81
2022/08/09 11:50:20;;;;;;;2.22;1.90;;;27.20;12.60;;;;;;5138681;27;20187;-81
2022/08/09 11:53:20;;;;;;;5.43;2.10;;;27.20;10.70;;;;;;5136258;27;20317;-82
2022/08/09 11:55:53;;;;;;;3.30;2.10;;;27.20;10.60;;;;;;5139795;27;20201;-83
2022/08/09 11:58:43;;;;;;;2.92;1.98;;;27.00;11.30;;;;;;5135921;27;20205;-81
2022/08/09 12:01:11;;;;;;;2.63;2.00;;;26.90;11.60;;;;;;5128502;27;20672;-83
2022/08/09 12:03:39;;;;;;;2.75;1.92;;;26.90;10.90;;;;;;5139602;27;20211;-83
2022/08/09 12:06:12;;;;;;;2.17;1.90;;;26.80;11.20;;;;;;5129164;27;20206;-83
2022/08/09 12:08:47;;;;;;;3.05;1.80;;;27.00;10.80;;;;;;5129343;27;20195;-83
2022/08/09 12:11:24;;;;;;;3.70;1.88;;;26.80;14.30;;;;;;5138312;27;20198;-83
2022/08/09 12:13:53;;;;;;;2.42;1.90;;;26.70;11.30;;;;;;5139229;27;20194;-83
2022/08/09 12:16:31;;;;;;;4.60;2.00;;;26.80;11.50;;;;;;5139567;27;20191;-83
2022/08/09 12:19:01;;;;;;;4.13;1.90;;;26.90;11.60;;;;;;5122014;27;20211;-83
2022/08/09 12:21:36;;;;;;;6.53;2.05;;;26.90;11.30;;;;;;5131167;27;20207;-81
2022/08/09 12:24:08;;;;;;;4.90;1.92;;;26.80;12.30;;;;;;5147652;27;20206;-81
2022/08/09 12:26:42;;;;;;;2.88;1.90;;;27.00;11.80;;;;;;5134239;27;20426;-82
2022/08/09 12:29:14;;;;;;;3.97;1.73;;;27.00;11.50;;;;;;5140991;27;20587;-82
2022/08/09 12:31:41;;;;;;;2.20;1.85;;;27.10;13.00;;;;;;5127874;27;20209;-82
2022/08/09 12:34:08;;;;;;;4.22;2.10;;;27.10;10.70;;;;;;5143507;27;20195;-81
2022/08/09 12:36:48;;;;;;;3.25;1.73;;;27.10;10.70;;;;;;5140881;27;20230;-82
2022/08/09 12:39:23;;;;;;;4.00;1.98;;;26.80;11.90;;;;;;5145600;27;20658;-83
2022/08/09 12:41:52;;;;;;;3.20;1.77;;;26.90;12.00;;;;;;5149649;27;20267;-83
2022/08/09 12:44:19;;;;;;;2.15;1.55;;;26.70;11.70;;;;;;5143846;27;20656;-83
2022/08/09 12:46:48;;;;;;;2.05;1.52;;;26.80;11.90;;;;;;5143612;27;20225;-84
2022/08/09 12:49:16;;;;;;;5.03;1.90;;;26.70;13.00;;;;;;5143174;27;20196;-84
2022/08/09 12:51:53;;;;;;;2.03;1.73;;;26.60;11.80;;;;;;5143404;27;20509;-81
2022/08/09 12:54:21;;;;;;;4.38;1.83;;;26.80;12.20;;;;;;5143624;27;20207;-82
2022/08/09 12:56:50;;;;;;;4.30;1.80;;;26.60;12.60;;;;;;5136372;27;20207;-84
2022/08/09 12:59:19;;;;;;;3.60;1.80;;;26.70;11.60;;;;;;5136088;27;20251;-83
2022/08/09 13:01:48;;;;;;;3.63;1.70;;;26.80;12.00;;;;;;5142748;27;20195;-83